Willshire, Ohio
Current Conditions -  °F | °C
As of 2:54 AM on Sunday 21 Dec 2014 (Local Time) from KFWA Reporting Station
Overcast Overcast  
Wind Chill: 30°   Ceiling: 6000
Heat Index: 30°   Visibility: 8mi
Dew Point: 27°   Wind: 3mph
Humidity: 88%   Direction: 190°S
Pressure: 30.3"   Gusts: NA
Location:  40.75°N, 84.79°W
Report Text: KFWA 210754Z 19003KT 8SM FEW026 OVC060 M01/M03 A3030 RMK AO2 SLP269 T10111028
Loading
Personal Weather Stations






























Interactive Weather Map New forecast layout! Learn more

10-Day Weather Forecast

Advertisements
Track Severe Weather on mobile